sensor_id;sensor_type;location;lat;lon;timestamp;temperature;humidity
3566;DHT22;1797;51.844;7.684;2022-08-19T00:01:18;17.90;99.90
3566;DHT22;1797;51.844;7.684;2022-08-19T00:03:44;17.60;99.90
3566;DHT22;1797;51.844;7.684;2022-08-19T00:06:10;17.80;99.90
3566;DHT22;1797;51.844;7.684;2022-08-19T00:08:35;17.90;99.90
3566;DHT22;1797;51.844;7.684;2022-08-19T00:11:01;17.90;99.90
3566;DHT22;1797;51.844;7.684;2022-08-19T00:13:27;17.90;99.90
3566;DHT22;1797;51.844;7.684;2022-08-19T00:15:54;18.10;99.90
3566;DHT22;1797;51.844;7.684;2022-08-19T00:18:20;18.00;99.90
3566;DHT22;1797;51.844;7.684;2022-08-19T00:20:45;17.60;99.90
3566;DHT22;1797;51.844;7.684;2022-08-19T00:23:11;17.90;99.90
3566;DHT22;1797;51.844;7.684;2022-08-19T00:25:37;18.20;99.90
3566;DHT22;1797;51.844;7.684;2022-08-19T00:28:03;18.00;99.90
3566;DHT22;1797;51.844;7.684;2022-08-19T00:30:29;18.30;99.90
3566;DHT22;1797;51.844;7.684;2022-08-19T00:32:55;17.90;99.90
3566;DHT22;1797;51.844;7.684;2022-08-19T00:35:21;18.10;99.90
3566;DHT22;1797;51.844;7.684;2022-08-19T00:37:50;17.70;99.90
3566;DHT22;1797;51.844;7.684;2022-08-19T00:40:17;17.90;99.90
3566;DHT22;1797;51.844;7.684;2022-08-19T00:42:43;17.80;99.90
3566;DHT22;1797;51.844;7.684;2022-08-19T00:45:17;17.80;99.90
3566;DHT22;1797;51.844;7.684;2022-08-19T00:47:44;17.60;99.90
3566;DHT22;1797;51.844;7.684;2022-08-19T00:50:12;17.80;99.90
3566;DHT22;1797;51.844;7.684;2022-08-19T00:52:43;17.70;99.90
3566;DHT22;1797;51.844;7.684;2022-08-19T00:55:14;17.90;99.90
3566;DHT22;1797;51.844;7.684;2022-08-19T00:57:46;17.70;99.90
3566;DHT22;1797;51.844;7.684;2022-08-19T01:00:15;17.70;99.90
3566;DHT22;1797;51.844;7.684;2022-08-19T01:02:42;17.30;99.90
3566;DHT22;1797;51.844;7.684;2022-08-19T01:05:14;17.50;99.90
3566;DHT22;1797;51.844;7.684;2022-08-19T01:07:42;17.50;99.90
3566;DHT22;1797;51.844;7.684;2022-08-19T01:10:14;17.40;99.90
3566;DHT22;1797;51.844;7.684;2022-08-19T01:12:40;17.30;99.90
3566;DHT22;1797;51.844;7.684;2022-08-19T01:15:08;16.90;99.90
3566;DHT22;1797;51.844;7.684;2022-08-19T01:17:36;17.30;99.90
3566;DHT22;1797;51.844;7.684;2022-08-19T01:20:04;17.30;99.90
3566;DHT22;1797;51.844;7.684;2022-08-19T01:22:41;17.20;99.90
3566;DHT22;1797;51.844;7.684;2022-08-19T01:25:08;17.20;99.90
3566;DHT22;1797;51.844;7.684;2022-08-19T01:27:44;17.20;99.90
3566;DHT22;1797;51.844;7.684;2022-08-19T01:30:14;16.90;99.90
3566;DHT22;1797;51.844;7.684;2022-08-19T01:32:40;17.10;99.90
3566;DHT22;1797;51.844;7.684;2022-08-19T01:35:06;17.10;99.90
3566;DHT22;1797;51.844;7.684;2022-08-19T01:37:50;17.00;99.90
3566;DHT22;1797;51.844;7.684;2022-08-19T01:40:18;16.90;99.90
3566;DHT22;1797;51.844;7.684;2022-08-19T01:42:46;17.00;99.90
3566;DHT22;1797;51.844;7.684;2022-08-19T01:45:13;17.00;99.90
3566;DHT22;1797;51.844;7.684;2022-08-19T01:47:39;17.20;99.90
3566;DHT22;1797;51.844;7.684;2022-08-19T01:50:08;16.90;99.90
3566;DHT22;1797;51.844;7.684;2022-08-19T01:52:41;16.80;99.90
3566;DHT22;1797;51.844;7.684;2022-08-19T01:55:11;16.90;99.90
3566;DHT22;1797;51.844;7.684;2022-08-19T01:57:37;16.80;99.90
3566;DHT22;1797;51.844;7.684;2022-08-19T02:00:09;17.00;99.90
3566;DHT22;1797;51.844;7.684;2022-08-19T02:02:35;17.10;99.90
3566;DHT22;1797;51.844;7.684;2022-08-19T02:05:01;17.10;99.90
3566;DHT22;1797;51.844;7.684;2022-08-19T02:07:26;17.20;99.90
3566;DHT22;1797;51.844;7.684;2022-08-19T02:09:54;16.60;99.90
3566;DHT22;1797;51.844;7.684;2022-08-19T02:12:21;16.60;99.90
3566;DHT22;1797;51.844;7.684;2022-08-19T02:14:47;16.60;99.90
3566;DHT22;1797;51.844;7.684;2022-08-19T02:17:12;16.70;99.90
3566;DHT22;1797;51.844;7.684;2022-08-19T02:19:38;16.70;99.90
3566;DHT22;1797;51.844;7.684;2022-08-19T02:22:04;16.40;99.90
3566;DHT22;1797;51.844;7.684;2022-08-19T02:24:30;16.90;99.90
3566;DHT22;1797;51.844;7.684;2022-08-19T02:26:55;16.80;99.90
3566;DHT22;1797;51.844;7.684;2022-08-19T02:29:21;16.60;99.90
3566;DHT22;1797;51.844;7.684;2022-08-19T02:31:47;16.70;99.90
3566;DHT22;1797;51.844;7.684;2022-08-19T02:34:12;16.70;99.90
3566;DHT22;1797;51.844;7.684;2022-08-19T02:36:38;16.80;99.90
3566;DHT22;1797;51.844;7.684;2022-08-19T02:39:04;16.60;99.90
3566;DHT22;1797;51.844;7.684;2022-08-19T02:41:32;16.70;99.90
3566;DHT22;1797;51.844;7.684;2022-08-19T02:44:00;16.50;99.90
3566;DHT22;1797;51.844;7.684;2022-08-19T02:46:29;16.40;99.90
3566;DHT22;1797;51.844;7.684;2022-08-19T02:48:58;16.00;99.90
3566;DHT22;1797;51.844;7.684;2022-08-19T02:51:33;16.40;99.90
3566;DHT22;1797;51.844;7.684;2022-08-19T02:53:59;16.40;99.90
3566;DHT22;1797;51.844;7.684;2022-08-19T02:56:25;16.60;99.90
3566;DHT22;1797;51.844;7.684;2022-08-19T02:58:54;16.60;99.90
3566;DHT22;1797;51.844;7.684;2022-08-19T03:01:30;16.70;99.90
3566;DHT22;1797;51.844;7.684;2022-08-19T03:03:57;16.60;99.90
3566;DHT22;1797;51.844;7.684;2022-08-19T03:06:23;16.50;99.90
3566;DHT22;1797;51.844;7.684;2022-08-19T03:08:51;16.50;99.90
3566;DHT22;1797;51.844;7.684;2022-08-19T03:11:26;16.50;99.90
3566;DHT22;1797;51.844;7.684;2022-08-19T03:13:53;16.50;99.90
3566;DHT22;1797;51.844;7.684;2022-08-19T03:16:21;16.30;99.90
3566;DHT22;1797;51.844;7.684;2022-08-19T03:18:47;16.30;99.90
3566;DHT22;1797;51.844;7.684;2022-08-19T03:21:21;16.50;99.90
3566;DHT22;1797;51.844;7.684;2022-08-19T03:23:48;16.30;99.90
3566;DHT22;1797;51.844;7.684;2022-08-19T03:26:14;16.20;99.90
3566;DHT22;1797;51.844;7.684;2022-08-19T03:28:44;16.30;99.90
3566;DHT22;1797;51.844;7.684;2022-08-19T03:31:12;16.20;99.90
3566;DHT22;1797;51.844;7.684;2022-08-19T03:33:38;16.40;99.90
3566;DHT22;1797;51.844;7.684;2022-08-19T03:36:07;16.30;99.90
3566;DHT22;1797;51.844;7.684;2022-08-19T03:38:43;16.30;99.90
3566;DHT22;1797;51.844;7.684;2022-08-19T03:41:13;16.30;99.90
3566;DHT22;1797;51.844;7.684;2022-08-19T03:43:40;16.20;99.90
3566;DHT22;1797;51.844;7.684;2022-08-19T03:46:12;16.20;99.90
3566;DHT22;1797;51.844;7.684;2022-08-19T03:48:39;16.20;99.90
3566;DHT22;1797;51.844;7.684;2022-08-19T03:51:07;16.30;99.90
3566;DHT22;1797;51.844;7.684;2022-08-19T03:53:34;16.10;99.90
3566;DHT22;1797;51.844;7.684;2022-08-19T03:56:00;16.10;99.90
3566;DHT22;1797;51.844;7.684;2022-08-19T03:58:28;16.20;99.90
3566;DHT22;1797;51.844;7.684;2022-08-19T04:00:55;16.00;99.90
3566;DHT22;1797;51.844;7.684;2022-08-19T04:03:22;16.00;99.90
3566;DHT22;1797;51.844;7.684;2022-08-19T04:05:47;15.90;99.90
3566;DHT22;1797;51.844;7.684;2022-08-19T04:08:13;15.90;99.90
3566;DHT22;1797;51.844;7.684;2022-08-19T04:10:46;15.90;99.90
3566;DHT22;1797;51.844;7.684;2022-08-19T04:13:11;15.90;99.90
3566;DHT22;1797;51.844;7.684;2022-08-19T04:15:41;15.70;99.90
3566;DHT22;1797;51.844;7.684;2022-08-19T04:18:11;15.90;99.90
3566;DHT22;1797;51.844;7.684;2022-08-19T04:20:44;15.80;99.90
3566;DHT22;1797;51.844;7.684;2022-08-19T04:23:11;15.80;99.90
3566;DHT22;1797;51.844;7.684;2022-08-19T04:25:42;16.00;99.90
3566;DHT22;1797;51.844;7.684;2022-08-19T04:28:09;15.80;99.90
3566;DHT22;1797;51.844;7.684;2022-08-19T04:30:44;15.80;99.90
3566;DHT22;1797;51.844;7.684;2022-08-19T04:33:11;15.80;99.90
3566;DHT22;1797;51.844;7.684;2022-08-19T04:35:39;15.80;99.90
3566;DHT22;1797;51.844;7.684;2022-08-19T04:38:05;15.90;99.90
3566;DHT22;1797;51.844;7.684;2022-08-19T04:40:31;15.90;99.90
3566;DHT22;1797;51.844;7.684;2022-08-19T04:43:15;15.90;99.90
3566;DHT22;1797;51.844;7.684;2022-08-19T04:45:43;15.90;99.90
3566;DHT22;1797;51.844;7.684;2022-08-19T04:48:08;16.00;99.90
3566;DHT22;1797;51.844;7.684;2022-08-19T04:50:35;15.80;99.90
3566;DHT22;1797;51.844;7.684;2022-08-19T04:53:00;16.10;99.90
3566;DHT22;1797;51.844;7.684;2022-08-19T04:55:26;15.90;99.90
3566;DHT22;1797;51.844;7.684;2022-08-19T04:57:52;15.80;99.90
3566;DHT22;1797;51.844;7.684;2022-08-19T05:00:18;15.90;99.90
3566;DHT22;1797;51.844;7.684;2022-08-19T05:02:44;16.30;99.90
3566;DHT22;1797;51.844;7.684;2022-08-19T05:05:09;15.90;99.90
3566;DHT22;1797;51.844;7.684;2022-08-19T05:07:36;15.40;99.90
3566;DHT22;1797;51.844;7.684;2022-08-19T05:10:04;15.90;99.90
3566;DHT22;1797;51.844;7.684;2022-08-19T05:12:29;15.90;99.90
3566;DHT22;1797;51.844;7.684;2022-08-19T05:14:56;15.90;99.90
3566;DHT22;1797;51.844;7.684;2022-08-19T05:17:22;16.00;99.90
3566;DHT22;1797;51.844;7.684;2022-08-19T05:19:47;16.00;99.90
3566;DHT22;1797;51.844;7.684;2022-08-19T05:22:32;16.00;99.90
3566;DHT22;1797;51.844;7.684;2022-08-19T05:25:03;16.00;99.90
3566;DHT22;1797;51.844;7.684;2022-08-19T05:27:28;16.20;99.90
3566;DHT22;1797;51.844;7.684;2022-08-19T05:29:54;16.10;99.90
3566;DHT22;1797;51.844;7.684;2022-08-19T05:32:19;16.30;99.90
3566;DHT22;1797;51.844;7.684;2022-08-19T05:34:46;16.30;99.90
3566;DHT22;1797;51.844;7.684;2022-08-19T05:37:12;16.30;99.90
3566;DHT22;1797;51.844;7.684;2022-08-19T05:39:38;16.40;99.90
3566;DHT22;1797;51.844;7.684;2022-08-19T05:42:10;16.40;99.90
3566;DHT22;1797;51.844;7.684;2022-08-19T05:44:38;16.50;99.90
3566;DHT22;1797;51.844;7.684;2022-08-19T05:47:06;16.50;99.90
3566;DHT22;1797;51.844;7.684;2022-08-19T05:49:33;16.50;99.90
3566;DHT22;1797;51.844;7.684;2022-08-19T05:52:03;16.60;99.90
3566;DHT22;1797;51.844;7.684;2022-08-19T05:54:29;16.80;99.90
3566;DHT22;1797;51.844;7.684;2022-08-19T05:56:56;16.90;99.90
3566;DHT22;1797;51.844;7.684;2022-08-19T05:59:21;16.80;99.90
3566;DHT22;1797;51.844;7.684;2022-08-19T06:01:50;16.60;99.90
3566;DHT22;1797;51.844;7.684;2022-08-19T06:04:18;17.10;99.90
3566;DHT22;1797;51.844;7.684;2022-08-19T06:06:46;17.10;99.90
3566;DHT22;1797;51.844;7.684;2022-08-19T06:09:12;17.10;99.90
3566;DHT22;1797;51.844;7.684;2022-08-19T06:11:58;17.40;99.90
3566;DHT22;1797;51.844;7.684;2022-08-19T06:14:28;17.40;99.90
3566;DHT22;1797;51.844;7.684;2022-08-19T06:16:55;17.50;99.90
3566;DHT22;1797;51.844;7.684;2022-08-19T06:19:22;17.60;99.90
3566;DHT22;1797;51.844;7.684;2022-08-19T06:21:50;17.90;99.90
3566;DHT22;1797;51.844;7.684;2022-08-19T06:24:19;18.20;99.90
3566;DHT22;1797;51.844;7.684;2022-08-19T06:26:47;17.90;99.90
3566;DHT22;1797;51.844;7.684;2022-08-19T06:29:15;18.10;99.90
3566;DHT22;1797;51.844;7.684;2022-08-19T06:31:47;18.30;99.90
3566;DHT22;1797;51.844;7.684;2022-08-19T06:34:15;18.40;99.90
3566;DHT22;1797;51.844;7.684;2022-08-19T06:36:44;18.50;99.90
3566;DHT22;1797;51.844;7.684;2022-08-19T06:39:13;18.50;99.90
3566;DHT22;1797;51.844;7.684;2022-08-19T06:41:42;18.60;99.90
3566;DHT22;1797;51.844;7.684;2022-08-19T06:44:08;18.70;99.90
3566;DHT22;1797;51.844;7.684;2022-08-19T06:46:35;19.00;99.90
3566;DHT22;1797;51.844;7.684;2022-08-19T06:49:01;19.10;99.90
3566;DHT22;1797;51.844;7.684;2022-08-19T06:51:27;19.40;99.90
3566;DHT22;1797;51.844;7.684;2022-08-19T06:53:55;19.40;99.90
3566;DHT22;1797;51.844;7.684;2022-08-19T06:56:26;19.40;99.90
3566;DHT22;1797;51.844;7.684;2022-08-19T06:59:20;19.50;99.90
3566;DHT22;1797;51.844;7.684;2022-08-19T07:01:49;19.60;99.90
3566;DHT22;1797;51.844;7.684;2022-08-19T07:04:17;19.70;99.90
3566;DHT22;1797;51.844;7.684;2022-08-19T07:06:43;19.80;99.90
3566;DHT22;1797;51.844;7.684;2022-08-19T07:09:12;19.90;99.90
3566;DHT22;1797;51.844;7.684;2022-08-19T07:11:37;19.90;99.90
3566;DHT22;1797;51.844;7.684;2022-08-19T07:14:03;20.00;99.90
3566;DHT22;1797;51.844;7.684;2022-08-19T07:16:31;20.00;99.90
3566;DHT22;1797;51.844;7.684;2022-08-19T07:18:58;20.20;96.10
3566;DHT22;1797;51.844;7.684;2022-08-19T07:21:27;20.30;6.60
3566;DHT22;1797;51.844;7.684;2022-08-19T07:23:55;20.40;1.00
3566;DHT22;1797;51.844;7.684;2022-08-19T07:26:27;20.70;1.00
3566;DHT22;1797;51.844;7.684;2022-08-19T07:28:54;20.70;1.00
3566;DHT22;1797;51.844;7.684;2022-08-19T07:31:22;21.00;1.00
3566;DHT22;1797;51.844;7.684;2022-08-19T07:33:50;21.20;97.30
3566;DHT22;1797;51.844;7.684;2022-08-19T07:36:19;21.50;99.90
3566;DHT22;1797;51.844;7.684;2022-08-19T07:38:47;21.70;1.00
3566;DHT22;1797;51.844;7.684;2022-08-19T07:41:16;22.00;1.00
3566;DHT22;1797;51.844;7.684;2022-08-19T07:43:42;22.30;1.00
3566;DHT22;1797;51.844;7.684;2022-08-19T07:46:10;22.40;1.00
3566;DHT22;1797;51.844;7.684;2022-08-19T07:48:36;22.60;1.00
3566;DHT22;1797;51.844;7.684;2022-08-19T07:51:05;22.70;1.00
3566;DHT22;1797;51.844;7.684;2022-08-19T07:53:32;22.80;99.90
3566;DHT22;1797;51.844;7.684;2022-08-19T07:56:00;22.90;1.00
3566;DHT22;1797;51.844;7.684;2022-08-19T07:58:32;22.90;1.00
3566;DHT22;1797;51.844;7.684;2022-08-19T08:00:58;23.10;1.00
3566;DHT22;1797;51.844;7.684;2022-08-19T08:03:27;23.30;1.00
3566;DHT22;1797;51.844;7.684;2022-08-19T08:06:15;23.90;99.90
3566;DHT22;1797;51.844;7.684;2022-08-19T08:09:00;23.70;27.40
3566;DHT22;1797;51.844;7.684;2022-08-19T08:11:49;24.00;1.00
3566;DHT22;1797;51.844;7.684;2022-08-19T08:14:22;24.10;1.00
3566;DHT22;1797;51.844;7.684;2022-08-19T08:16:49;24.30;1.00
3566;DHT22;1797;51.844;7.684;2022-08-19T08:19:18;24.20;1.00
3566;DHT22;1797;51.844;7.684;2022-08-19T08:21:44;24.10;1.00
3566;DHT22;1797;51.844;7.684;2022-08-19T08:24:11;24.20;1.00
3566;DHT22;1797;51.844;7.684;2022-08-19T08:26:38;24.30;1.00
3566;DHT22;1797;51.844;7.684;2022-08-19T08:29:04;24.50;1.00
3566;DHT22;1797;51.844;7.684;2022-08-19T08:31:30;24.80;99.90
3566;DHT22;1797;51.844;7.684;2022-08-19T08:33:56;24.80;1.00
3566;DHT22;1797;51.844;7.684;2022-08-19T08:36:21;25.20;1.00
3566;DHT22;1797;51.844;7.684;2022-08-19T08:38:47;25.00;1.00
3566;DHT22;1797;51.844;7.684;2022-08-19T08:43:47;24.90;1.00
3566;DHT22;1797;51.844;7.684;2022-08-19T08:46:23;25.00;1.00
3566;DHT22;1797;51.844;7.684;2022-08-19T08:49:03;24.60;64.40
3566;DHT22;1797;51.844;7.684;2022-08-19T08:51:47;25.00;1.00
3566;DHT22;1797;51.844;7.684;2022-08-19T08:54:19;25.10;1.00
3566;DHT22;1797;51.844;7.684;2022-08-19T08:56:47;24.90;1.00
3566;DHT22;1797;51.844;7.684;2022-08-19T08:59:21;24.40;99.90
3566;DHT22;1797;51.844;7.684;2022-08-19T09:01:49;25.00;99.90
3566;DHT22;1797;51.844;7.684;2022-08-19T09:04:15;25.20;1.00
3566;DHT22;1797;51.844;7.684;2022-08-19T09:06:48;25.30;1.00
3566;DHT22;1797;51.844;7.684;2022-08-19T09:09:23;25.60;1.00
3566;DHT22;1797;51.844;7.684;2022-08-19T09:12:21;25.90;1.00
3566;DHT22;1797;51.844;7.684;2022-08-19T09:15:03;25.90;1.00
3566;DHT22;1797;51.844;7.684;2022-08-19T09:17:31;26.00;1.00
3566;DHT22;1797;51.844;7.684;2022-08-19T09:20:15;26.20;1.00
3566;DHT22;1797;51.844;7.684;2022-08-19T09:22:42;26.50;99.90
3566;DHT22;1797;51.844;7.684;2022-08-19T09:25:11;26.60;99.90
3566;DHT22;1797;51.844;7.684;2022-08-19T09:27:39;26.60;99.90
3566;DHT22;1797;51.844;7.684;2022-08-19T09:30:06;26.90;99.90
3566;DHT22;1797;51.844;7.684;2022-08-19T09:32:33;27.30;1.00
3566;DHT22;1797;51.844;7.684;2022-08-19T09:34:59;27.60;1.00
3566;DHT22;1797;51.844;7.684;2022-08-19T09:37:27;27.70;1.00
3566;DHT22;1797;51.844;7.684;2022-08-19T09:39:53;27.80;1.00
3566;DHT22;1797;51.844;7.684;2022-08-19T09:42:19;27.60;1.00
3566;DHT22;1797;51.844;7.684;2022-08-19T09:44:45;27.70;1.00
3566;DHT22;1797;51.844;7.684;2022-08-19T09:47:13;27.50;1.00
3566;DHT22;1797;51.844;7.684;2022-08-19T09:49:39;27.50;1.00
3566;DHT22;1797;51.844;7.684;2022-08-19T09:52:08;27.60;1.00
3566;DHT22;1797;51.844;7.684;2022-08-19T09:54:34;27.60;1.00
3566;DHT22;1797;51.844;7.684;2022-08-19T09:57:00;27.50;1.00
3566;DHT22;1797;51.844;7.684;2022-08-19T09:59:27;27.60;1.00
3566;DHT22;1797;51.844;7.684;2022-08-19T10:01:53;27.90;1.00
3566;DHT22;1797;51.844;7.684;2022-08-19T10:04:19;28.20;1.00
3566;DHT22;1797;51.844;7.684;2022-08-19T10:06:47;28.70;1.00
3566;DHT22;1797;51.844;7.684;2022-08-19T10:09:16;29.20;1.00
3566;DHT22;1797;51.844;7.684;2022-08-19T10:11:44;29.10;1.00
3566;DHT22;1797;51.844;7.684;2022-08-19T10:14:14;29.10;1.00
3566;DHT22;1797;51.844;7.684;2022-08-19T10:16:40;29.00;1.00
3566;DHT22;1797;51.844;7.684;2022-08-19T10:19:07;28.60;1.00
3566;DHT22;1797;51.844;7.684;2022-08-19T10:21:34;27.80;1.00
3566;DHT22;1797;51.844;7.684;2022-08-19T10:24:02;27.60;1.00
3566;DHT22;1797;51.844;7.684;2022-08-19T10:26:32;27.40;1.00
3566;DHT22;1797;51.844;7.684;2022-08-19T10:28:58;27.40;1.00
3566;DHT22;1797;51.844;7.684;2022-08-19T10:31:28;27.40;1.00
3566;DHT22;1797;51.844;7.684;2022-08-19T10:33:54;27.60;1.00
3566;DHT22;1797;51.844;7.684;2022-08-19T10:36:27;28.10;1.00
3566;DHT22;1797;51.844;7.684;2022-08-19T10:38:56;28.50;1.00
3566;DHT22;1797;51.844;7.684;2022-08-19T10:43:57;28.00;1.00
3566;DHT22;1797;51.844;7.684;2022-08-19T10:46:25;27.40;1.00
3566;DHT22;1797;51.844;7.684;2022-08-19T10:48:52;26.90;61.80
3566;DHT22;1797;51.844;7.684;2022-08-19T10:51:18;26.50;99.90
3566;DHT22;1797;51.844;7.684;2022-08-19T10:54:03;26.30;99.90
3566;DHT22;1797;51.844;7.684;2022-08-19T10:56:29;26.00;99.90
3566;DHT22;1797;51.844;7.684;2022-08-19T10:59:15;26.20;99.90
3566;DHT22;1797;51.844;7.684;2022-08-19T11:01:43;26.60;99.90
3566;DHT22;1797;51.844;7.684;2022-08-19T11:04:09;26.80;99.90
3566;DHT22;1797;51.844;7.684;2022-08-19T11:06:37;27.20;99.90
3566;DHT22;1797;51.844;7.684;2022-08-19T11:09:04;28.00;99.90
3566;DHT22;1797;51.844;7.684;2022-08-19T11:11:31;28.80;1.00
3566;DHT22;1797;51.844;7.684;2022-08-19T11:13:57;28.90;1.00
3566;DHT22;1797;51.844;7.684;2022-08-19T11:16:25;29.30;15.60
3566;DHT22;1797;51.844;7.684;2022-08-19T11:18:53;29.60;2.70
3566;DHT22;1797;51.844;7.684;2022-08-19T11:21:31;30.00;98.10
3566;DHT22;1797;51.844;7.684;2022-08-19T11:23:59;29.80;99.90
3566;DHT22;1797;51.844;7.684;2022-08-19T11:26:27;29.80;1.00
3566;DHT22;1797;51.844;7.684;2022-08-19T11:28:52;30.10;1.00
3566;DHT22;1797;51.844;7.684;2022-08-19T11:31:24;30.50;1.00
3566;DHT22;1797;51.844;7.684;2022-08-19T11:33:50;31.00;1.00
3566;DHT22;1797;51.844;7.684;2022-08-19T11:36:18;31.00;1.00
3566;DHT22;1797;51.844;7.684;2022-08-19T11:38:45;31.00;1.00
3566;DHT22;1797;51.844;7.684;2022-08-19T11:41:11;31.20;1.00
3566;DHT22;1797;51.844;7.684;2022-08-19T11:43:37;31.40;1.00
3566;DHT22;1797;51.844;7.684;2022-08-19T11:46:08;31.50;1.00
3566;DHT22;1797;51.844;7.684;2022-08-19T11:48:35;31.70;1.00
3566;DHT22;1797;51.844;7.684;2022-08-19T11:51:05;31.50;1.00
3566;DHT22;1797;51.844;7.684;2022-08-19T11:53:31;31.00;1.00
3566;DHT22;1797;51.844;7.684;2022-08-19T11:55:57;30.40;1.00
3566;DHT22;1797;51.844;7.684;2022-08-19T11:58:23;29.50;1.00
3566;DHT22;1797;51.844;7.684;2022-08-19T12:00:50;29.10;1.00
3566;DHT22;1797;51.844;7.684;2022-08-19T12:03:16;29.10;1.00
3566;DHT22;1797;51.844;7.684;2022-08-19T12:05:42;29.50;1.00
3566;DHT22;1797;51.844;7.684;2022-08-19T12:08:08;30.10;1.00
3566;DHT22;1797;51.844;7.684;2022-08-19T12:10:35;30.50;1.00
3566;DHT22;1797;51.844;7.684;2022-08-19T12:13:01;30.50;99.90
3566;DHT22;1797;51.844;7.684;2022-08-19T12:15:27;30.40;1.00
3566;DHT22;1797;51.844;7.684;2022-08-19T12:17:54;30.50;1.00
3566;DHT22;1797;51.844;7.684;2022-08-19T12:20:23;30.40;1.00
3566;DHT22;1797;51.844;7.684;2022-08-19T12:22:49;30.30;1.00
3566;DHT22;1797;51.844;7.684;2022-08-19T12:25:16;30.20;1.00
3566;DHT22;1797;51.844;7.684;2022-08-19T12:27:42;30.00;1.00
3566;DHT22;1797;51.844;7.684;2022-08-19T12:30:10;29.90;1.00
3566;DHT22;1797;51.844;7.684;2022-08-19T12:32:36;30.00;99.90
3566;DHT22;1797;51.844;7.684;2022-08-19T12:35:02;30.10;1.00
3566;DHT22;1797;51.844;7.684;2022-08-19T12:37:30;30.80;99.90
3566;DHT22;1797;51.844;7.684;2022-08-19T12:39:57;30.80;99.90
3566;DHT22;1797;51.844;7.684;2022-08-19T12:42:23;30.40;99.90
3566;DHT22;1797;51.844;7.684;2022-08-19T12:44:48;30.00;99.90
3566;DHT22;1797;51.844;7.684;2022-08-19T12:47:14;29.90;99.90
3566;DHT22;1797;51.844;7.684;2022-08-19T12:49:40;30.00;99.90
3566;DHT22;1797;51.844;7.684;2022-08-19T12:52:08;29.60;99.90
3566;DHT22;1797;51.844;7.684;2022-08-19T12:54:35;29.30;99.90
3566;DHT22;1797;51.844;7.684;2022-08-19T12:57:05;29.50;99.90
3566;DHT22;1797;51.844;7.684;2022-08-19T12:59:33;29.50;99.90
3566;DHT22;1797;51.844;7.684;2022-08-19T13:01:59;29.70;99.90
3566;DHT22;1797;51.844;7.684;2022-08-19T13:04:25;30.10;99.90
3566;DHT22;1797;51.844;7.684;2022-08-19T13:06:51;30.50;99.90
3566;DHT22;1797;51.844;7.684;2022-08-19T13:09:16;30.70;1.00
3566;DHT22;1797;51.844;7.684;2022-08-19T13:11:42;31.30;1.00
3566;DHT22;1797;51.844;7.684;2022-08-19T13:14:08;31.60;1.00
3566;DHT22;1797;51.844;7.684;2022-08-19T13:16:34;31.80;1.00
3566;DHT22;1797;51.844;7.684;2022-08-19T13:19:01;31.70;1.00
3566;DHT22;1797;51.844;7.684;2022-08-19T13:21:29;31.70;5.60
3566;DHT22;1797;51.844;7.684;2022-08-19T13:23:55;31.50;5.20
3566;DHT22;1797;51.844;7.684;2022-08-19T13:26:21;31.30;23.10
3566;DHT22;1797;51.844;7.684;2022-08-19T13:28:46;31.30;97.40
3566;DHT22;1797;51.844;7.684;2022-08-19T13:31:33;31.30;99.90
3566;DHT22;1797;51.844;7.684;2022-08-19T13:34:28;31.20;1.00
3566;DHT22;1797;51.844;7.684;2022-08-19T13:36:55;31.50;99.90
3566;DHT22;1797;51.844;7.684;2022-08-19T13:39:20;31.20;99.90
3566;DHT22;1797;51.844;7.684;2022-08-19T13:41:48;30.80;99.90
3566;DHT22;1797;51.844;7.684;2022-08-19T13:44:16;30.50;1.00
3566;DHT22;1797;51.844;7.684;2022-08-19T13:46:43;30.20;1.00
3566;DHT22;1797;51.844;7.684;2022-08-19T13:49:10;30.30;1.00
3566;DHT22;1797;51.844;7.684;2022-08-19T13:51:38;30.50;1.00
3566;DHT22;1797;51.844;7.684;2022-08-19T13:54:05;30.50;1.00
3566;DHT22;1797;51.844;7.684;2022-08-19T13:56:31;30.40;1.00
3566;DHT22;1797;51.844;7.684;2022-08-19T13:58:57;30.70;1.00
3566;DHT22;1797;51.844;7.684;2022-08-19T14:01:23;30.80;1.00
3566;DHT22;1797;51.844;7.684;2022-08-19T14:03:49;30.70;1.00
3566;DHT22;1797;51.844;7.684;2022-08-19T14:06:15;30.60;1.00
3566;DHT22;1797;51.844;7.684;2022-08-19T14:08:42;30.10;1.00
3566;DHT22;1797;51.844;7.684;2022-08-19T14:11:08;30.00;1.00
3566;DHT22;1797;51.844;7.684;2022-08-19T14:13:34;29.90;1.00
3566;DHT22;1797;51.844;7.684;2022-08-19T14:15:59;30.00;1.00
3566;DHT22;1797;51.844;7.684;2022-08-19T14:18:25;29.90;99.90
3566;DHT22;1797;51.844;7.684;2022-08-19T14:20:51;30.00;99.90
3566;DHT22;1797;51.844;7.684;2022-08-19T14:23:17;30.30;99.90
3566;DHT22;1797;51.844;7.684;2022-08-19T14:25:43;30.30;99.90
3566;DHT22;1797;51.844;7.684;2022-08-19T14:28:09;30.30;1.00
3566;DHT22;1797;51.844;7.684;2022-08-19T14:30:36;30.20;1.00
3566;DHT22;1797;51.844;7.684;2022-08-19T14:33:03;29.90;1.00
3566;DHT22;1797;51.844;7.684;2022-08-19T14:35:31;29.70;1.00
3566;DHT22;1797;51.844;7.684;2022-08-19T14:38:00;29.50;1.00
3566;DHT22;1797;51.844;7.684;2022-08-19T14:40:27;29.50;1.00
3566;DHT22;1797;51.844;7.684;2022-08-19T14:42:55;29.70;1.00
3566;DHT22;1797;51.844;7.684;2022-08-19T14:45:25;29.60;1.00
3566;DHT22;1797;51.844;7.684;2022-08-19T14:47:51;29.50;1.00
3566;DHT22;1797;51.844;7.684;2022-08-19T14:50:17;29.50;1.00
3566;DHT22;1797;51.844;7.684;2022-08-19T14:52:47;29.30;99.90
3566;DHT22;1797;51.844;7.684;2022-08-19T14:55:14;29.30;99.90
3566;DHT22;1797;51.844;7.684;2022-08-19T14:57:41;29.30;99.90
3566;DHT22;1797;51.844;7.684;2022-08-19T15:00:08;29.10;99.90
3566;DHT22;1797;51.844;7.684;2022-08-19T15:02:38;28.90;99.90
3566;DHT22;1797;51.844;7.684;2022-08-19T15:05:04;28.80;1.00
3566;DHT22;1797;51.844;7.684;2022-08-19T15:07:30;28.70;1.00
3566;DHT22;1797;51.844;7.684;2022-08-19T15:09:55;28.70;1.00
3566;DHT22;1797;51.844;7.684;2022-08-19T15:12:21;28.60;1.00
3566;DHT22;1797;51.844;7.684;2022-08-19T15:14:47;28.50;1.00
3566;DHT22;1797;51.844;7.684;2022-08-19T15:17:16;28.40;1.00
3566;DHT22;1797;51.844;7.684;2022-08-19T15:19:42;28.30;1.00
3566;DHT22;1797;51.844;7.684;2022-08-19T15:22:08;28.20;1.00
3566;DHT22;1797;51.844;7.684;2022-08-19T15:24:34;28.20;1.00
3566;DHT22;1797;51.844;7.684;2022-08-19T15:27:01;28.00;1.00
3566;DHT22;1797;51.844;7.684;2022-08-19T15:29:26;27.90;1.00
3566;DHT22;1797;51.844;7.684;2022-08-19T15:31:52;27.90;1.00
3566;DHT22;1797;51.844;7.684;2022-08-19T15:34:21;27.90;1.00
3566;DHT22;1797;51.844;7.684;2022-08-19T15:36:46;27.70;1.00
3566;DHT22;1797;51.844;7.684;2022-08-19T15:39:12;27.70;1.00
3566;DHT22;1797;51.844;7.684;2022-08-19T15:41:38;27.70;1.00
3566;DHT22;1797;51.844;7.684;2022-08-19T15:44:07;27.70;1.00
3566;DHT22;1797;51.844;7.684;2022-08-19T15:46:35;27.70;1.00
3566;DHT22;1797;51.844;7.684;2022-08-19T15:49:02;27.70;1.00
3566;DHT22;1797;51.844;7.684;2022-08-19T15:51:30;27.70;1.00
3566;DHT22;1797;51.844;7.684;2022-08-19T15:53:57;27.70;1.00
3566;DHT22;1797;51.844;7.684;2022-08-19T15:56:23;27.60;99.90
3566;DHT22;1797;51.844;7.684;2022-08-19T15:58:48;27.50;1.00
3566;DHT22;1797;51.844;7.684;2022-08-19T16:01:32;27.50;1.00
3566;DHT22;1797;51.844;7.684;2022-08-19T16:03:59;27.40;1.00
3566;DHT22;1797;51.844;7.684;2022-08-19T16:06:52;27.30;1.00
3566;DHT22;1797;51.844;7.684;2022-08-19T16:09:21;27.30;1.00
3566;DHT22;1797;51.844;7.684;2022-08-19T16:11:47;27.30;1.00
3566;DHT22;1797;51.844;7.684;2022-08-19T16:14:17;27.20;1.00
3566;DHT22;1797;51.844;7.684;2022-08-19T16:16:44;27.30;1.00
3566;DHT22;1797;51.844;7.684;2022-08-19T16:19:11;27.20;1.00